KPNC/PNC METAR and TAF weather

Enter ICAO airport designator
Station Type Date Time Source
KPNC METAR 2019/06/18 04:53 UTC NOAA

KPNC 180453Z AUTO A2997 RMK AO2 SLPNO PWINO $


Station Type Date Time Source
KPNC Decoded METAR 2019/06/18 04:53 UTC NOAA

PONCA CITY MUNICIPAL AIRPORT, OK, United States (KPNC) 36-44N 97-06W 308M
Jun 18, 2019 - 12:53 AM EDT / 2019.06.18 0453 UTC
Pressure (altimeter): 29.97 in. Hg (1014 hPa)
ob: KPNC 180453Z AUTO A2997 RMK AO2 SLPNO PWINO
cycle: 5

Station Type Date Time Source
KPNC TAF 2019/06/17 18:22 UTC NOAA

TAF KPNC 171720Z 1718/1818 07006KT P6SM SCT030
FM180000 11004KT P6SM FEW250
AMD NOT SKED

Example: see airport list